createdAt,value
2019-04-07T00:02:22.433Z,95490.51
2019-04-07T00:04:53.461Z,95554.87
2019-04-07T00:07:24.173Z,95614.54
2019-04-07T00:09:54.611Z,95676.83
2019-04-07T00:12:25.388Z,95684.70
2019-04-07T00:14:58.356Z,95640.86
2019-04-07T00:17:31.160Z,95636.92
2019-04-07T00:20:01.578Z,95620.91
2019-04-07T00:22:32.384Z,95611.78
2019-04-07T00:25:02.796Z,95598.34
2019-04-07T00:27:33.395Z,95607.34
2019-04-07T00:30:04.068Z,95683.70
2019-04-07T00:32:35.038Z,95701.69
2019-04-07T00:35:05.761Z,95652.30
2019-04-07T00:37:36.327Z,95646.92
2019-04-07T00:40:08.627Z,95606.84
2019-04-07T00:42:39.137Z,95594.75
2019-04-07T00:45:09.777Z,95629.42
2019-04-07T00:47:40.304Z,95614.04
2019-04-07T00:50:10.704Z,95619.29
2019-04-07T00:52:41.105Z,95666.38
2019-04-07T00:55:11.660Z,95655.74
2019-04-07T00:57:42.038Z,95690.89
2019-04-07T01:00:13.555Z,95672.25
2019-04-07T01:02:44.118Z,95700.22
2019-04-07T01:05:14.795Z,95702.03
2019-04-07T01:07:46.371Z,95696.78
2019-04-07T01:10:17.438Z,95695.78
2019-04-07T01:12:50.242Z,95690.89
2019-04-07T01:15:20.752Z,95700.72
2019-04-07T01:17:51.435Z,95716.77
2019-04-07T01:20:22.729Z,95768.13
2019-04-07T01:22:53.147Z,95765.82
2019-04-07T01:25:24.167Z,95774.02
2019-04-07T01:27:54.741Z,95796.61
2019-04-07T01:30:25.190Z,95764.38
2019-04-07T01:32:56.366Z,95759.62
2019-04-07T01:35:26.827Z,95737.53
2019-04-07T01:37:57.151Z,95713.51
2019-04-07T01:40:27.523Z,95826.75
2019-04-07T01:43:20.255Z,95784.16
2019-04-07T01:46:07.456Z,95722.77
2019-04-07T01:48:49.200Z,95722.52
2019-04-07T01:51:44.586Z,95691.39
2019-04-07T01:54:34.325Z,95746.55
2019-04-07T01:57:36.419Z,95808.56
2019-04-07T02:00:41.571Z,95772.08
2019-04-07T02:03:29.880Z,95706.02
2019-04-07T02:06:28.605Z,95762.75
2019-04-07T02:09:03.358Z,95736.09
2019-04-07T02:11:59.411Z,95710.56
2019-04-07T02:14:48.850Z,95761.42
2019-04-07T02:17:38.173Z,95740.84
2019-04-07T02:20:16.711Z,95723.64
2019-04-07T02:22:54.714Z,95737.72
2019-04-07T02:25:41.668Z,95771.58
2019-04-07T02:28:40.711Z,95819.23
2019-04-07T02:31:29.633Z,95850.34
2019-04-07T02:34:14.131Z,95760.30
2019-04-07T02:37:03.234Z,95724.33
2019-04-07T02:39:44.385Z,95711.06
2019-04-07T02:42:23.999Z,95711.53
2019-04-07T02:45:09.167Z,95699.27
2019-04-07T02:47:58.456Z,95832.00
2019-04-07T02:50:50.898Z,95846.09
2019-04-07T02:53:31.485Z,95840.20
2019-04-07T02:56:29.852Z,95787.97
2019-04-07T02:59:25.527Z,95764.56
2019-04-07T03:02:21.087Z,95857.55
2019-04-07T03:05:10.203Z,95827.12
2019-04-07T03:08:05.886Z,95788.78
2019-04-07T03:10:54.240Z,95787.97
2019-04-07T03:13:43.366Z,95923.87
2019-04-07T03:16:24.470Z,95904.39
2019-04-07T03:19:09.562Z,95961.05
2019-04-07T03:22:03.828Z,95971.70
2019-04-07T03:24:46.848Z,95913.22
2019-04-07T03:27:36.080Z,95900.95
2019-04-07T03:30:33.104Z,95996.86
2019-04-07T03:33:15.404Z,96033.31
2019-04-07T03:35:52.967Z,96009.23
2019-04-07T03:38:33.332Z,95984.67
2019-04-07T03:41:13.683Z,95961.73
2019-04-07T03:44:12.854Z,95983.36
2019-04-07T03:46:49.347Z,95974.02
2019-04-07T03:49:45.673Z,95978.46
2019-04-07T03:52:35.366Z,95946.83
2019-04-07T03:55:15.756Z,95940.94
2019-04-07T03:57:59.998Z,95959.79
2019-04-07T04:01:25.943Z,95897.33
2019-04-07T04:04:30.728Z,95920.61
2019-04-07T04:07:31.454Z,95954.22
2019-04-07T04:10:09.808Z,95903.75
2019-04-07T04:12:45.692Z,95878.70
2019-04-07T04:15:22.735Z,95869.06
2019-04-07T04:17:55.248Z,95862.17
2019-04-07T04:20:25.699Z,95816.94
2019-04-07T04:22:56.051Z,95850.39
2019-04-07T04:25:27.429Z,95815.63
2019-04-07T04:27:58.908Z,95818.94
2019-04-07T04:30:29.916Z,95957.66
2019-04-07T04:33:00.452Z,95925.36
2019-04-07T04:35:30.826Z,95884.27
2019-04-07T04:38:01.874Z,95888.03
2019-04-07T04:40:32.503Z,95899.50
2019-04-07T04:43:05.024Z,95869.37
2019-04-07T04:45:36.270Z,95889.03
2019-04-07T04:48:06.867Z,95875.94
2019-04-07T04:50:37.441Z,95958.16
2019-04-07T04:53:09.248Z,95978.96
2019-04-07T04:55:42.257Z,95972.57
2019-04-07T04:58:12.720Z,96009.60
2019-04-07T05:00:52.637Z,96016.00
2019-04-07T05:03:22.964Z,95999.27
2019-04-07T05:05:54.542Z,95987.66
2019-04-07T05:08:25.831Z,96029.27
2019-04-07T05:10:56.536Z,96125.67
2019-04-07T05:13:27.265Z,96187.83
2019-04-07T05:15:57.728Z,96210.16
2019-04-07T05:18:30.624Z,96249.69
2019-04-07T05:21:01.124Z,96171.76
2019-04-07T05:23:33.418Z,96168.49
2019-04-07T05:26:03.768Z,96181.78
2019-04-07T05:28:36.932Z,96157.48
2019-04-07T05:31:07.249Z,96148.31
2019-04-07T05:33:37.756Z,96142.73
2019-04-07T05:36:08.849Z,96106.17
2019-04-07T05:38:39.518Z,96129.13
2019-04-07T05:41:09.959Z,96127.48
2019-04-07T05:43:40.565Z,96179.16
2019-04-07T05:46:11.038Z,96127.98
2019-04-07T05:48:42.133Z,96159.80
2019-04-07T05:51:12.449Z,96107.67
2019-04-07T05:53:46.429Z,96072.25
2019-04-07T05:56:14.940Z,96040.43
2019-04-07T05:58:45.279Z,96019.12
2019-04-07T06:01:19.014Z,96070.11
2019-04-07T06:03:47.955Z,96037.48
2019-04-07T06:06:20.196Z,96087.98
2019-04-07T06:08:50.770Z,96105.36
2019-04-07T06:11:21.642Z,96117.52
2019-04-07T06:13:52.887Z,96119.96
2019-04-07T06:16:24.668Z,96138.33
2019-04-07T06:18:55.514Z,96168.33
2019-04-07T06:21:26.216Z,96168.33
2019-04-07T06:23:59.843Z,96175.57
2019-04-07T06:26:28.861Z,96174.44
2019-04-07T06:28:59.827Z,96200.34
2019-04-07T06:31:32.145Z,96226.76
2019-04-07T06:34:02.269Z,96268.94
2019-04-07T06:36:32.860Z,96205.42
2019-04-07T06:39:05.722Z,96142.09
2019-04-07T06:41:37.770Z,96132.75
2019-04-07T06:44:16.561Z,96058.98
2019-04-07T06:47:03.473Z,96091.30
2019-04-07T06:49:44.716Z,96050.95
2019-04-07T06:52:19.331Z,96027.51
2019-04-07T06:55:24.621Z,96100.14
2019-04-07T06:58:11.163Z,96089.48
2019-04-07T07:00:54.951Z,96109.48
2019-04-07T07:03:46.439Z,96098.00
2019-04-07T07:06:35.982Z,96171.95
2019-04-07T07:09:27.704Z,96134.75
2019-04-07T07:12:30.825Z,96123.77
2019-04-07T07:15:33.104Z,96119.33
2019-04-07T07:18:27.262Z,96119.50
2019-04-07T07:21:09.993Z,96149.17
2019-04-07T07:23:47.056Z,96162.47
2019-04-07T07:26:14.574Z,96119.19
2019-04-07T07:28:45.797Z,96074.08
2019-04-07T07:31:16.679Z,96104.77
2019-04-07T07:33:47.399Z,96075.39
2019-04-07T07:36:20.629Z,96053.58
2019-04-07T07:38:59.566Z,96042.60
2019-04-07T07:41:23.303Z,96017.72
2019-04-07T07:43:54.833Z,96055.71
2019-04-07T07:46:25.357Z,96000.36
2019-04-07T07:48:59.003Z,96035.89
2019-04-07T07:51:27.857Z,96102.13
2019-04-07T07:54:00.536Z,96071.67
2019-04-07T07:56:31.281Z,96050.49
2019-04-07T07:59:02.585Z,96012.95
2019-04-07T08:01:33.246Z,96051.13
2019-04-07T08:04:03.714Z,96178.21
2019-04-07T08:06:38.498Z,96209.09
2019-04-07T08:09:13.669Z,96230.42
2019-04-07T08:11:40.780Z,96293.76
2019-04-07T08:14:15.121Z,96368.14
2019-04-07T08:16:43.596Z,96349.92
2019-04-07T08:19:14.022Z,96381.95
2019-04-07T08:21:45.492Z,96481.02
2019-04-07T08:24:18.588Z,96365.20
2019-04-07T08:26:48.869Z,96548.75
2019-04-07T08:29:21.422Z,96586.40
2019-04-07T08:31:55.195Z,96631.80
2019-04-07T08:34:24.426Z,96656.64
2019-04-07T08:36:54.756Z,96694.34
2019-04-07T08:39:29.083Z,96676.09
2019-04-07T08:41:57.329Z,96659.45
2019-04-07T08:44:29.681Z,96639.88
2019-04-07T08:46:59.867Z,96681.84
2019-04-07T08:49:32.697Z,96716.89
2019-04-07T08:52:07.293Z,96626.03
2019-04-07T08:54:34.397Z,96735.64
2019-04-07T08:57:05.762Z,96856.21
2019-04-07T08:59:40.536Z,96898.04
2019-04-07T09:02:11.467Z,96812.89
2019-04-07T09:04:44.284Z,96741.91
2019-04-07T09:07:15.456Z,96675.42
2019-04-07T09:09:48.470Z,96646.80
2019-04-07T09:12:18.065Z,96653.21
2019-04-07T09:14:49.221Z,96717.56
2019-04-07T09:17:43.510Z,96782.11
2019-04-07T09:20:40.906Z,96773.05
2019-04-07T09:23:28.334Z,96918.81
2019-04-07T09:26:19.925Z,97178.03
2019-04-07T09:29:12.825Z,97389.09
2019-04-07T09:31:54.801Z,97457.69
2019-04-07T09:34:38.746Z,97437.36
2019-04-07T09:37:43.344Z,97379.53
2019-04-07T09:40:20.144Z,97407.27
2019-04-07T09:43:22.434Z,97486.77
2019-04-07T09:46:13.633Z,97706.52
2019-04-07T09:49:10.910Z,97773.59
2019-04-07T09:52:00.974Z,97825.26
2019-04-07T09:55:01.047Z,97852.75
2019-04-07T10:01:08.122Z,97559.72
2019-04-07T10:04:07.804Z,98025.17
2019-04-07T10:06:56.332Z,98635.32
2019-04-07T10:10:03.639Z,100000.16
2019-04-07T10:12:40.517Z,100936.81
2019-04-07T10:15:39.603Z,101371.51
2019-04-07T10:18:50.917Z,102242.45
2019-04-07T10:21:42.974Z,101998.99
2019-04-07T10:24:48.279Z,100164.92
2019-04-07T10:27:36.830Z,99482.37
2019-04-07T10:30:17.337Z,99036.75
2019-04-07T10:33:13.324Z,99495.48
2019-04-07T10:35:59.532Z,99724.62
2019-04-07T10:39:07.396Z,100486.30
2019-04-07T10:42:15.979Z,101079.80
2019-04-07T10:45:05.880Z,101080.44
2019-04-07T10:47:55.101Z,100122.64
2019-04-07T10:53:41.529Z,101770.95
2019-04-07T10:56:49.870Z,102365.50
2019-04-07T10:59:49.411Z,101586.40
2019-04-07T11:02:40.302Z,100423.22
2019-04-07T11:05:28.426Z,99670.95
2019-04-07T11:08:18.275Z,100496.12
2019-04-07T11:11:06.647Z,100721.31
2019-04-07T11:13:50.001Z,100145.73
2019-04-07T11:16:52.418Z,99809.62
2019-04-07T11:19:44.636Z,99440.02
2019-04-07T11:22:36.716Z,99106.91
2019-04-07T11:25:27.248Z,98927.91
2019-04-07T11:28:13.324Z,98839.42
2019-04-07T11:31:05.814Z,99134.30
2019-04-07T11:33:42.155Z,100072.75
2019-04-07T11:36:24.488Z,100319.09
2019-04-07T11:39:13.513Z,100350.66
2019-04-07T11:42:04.787Z,100245.48
2019-04-07T11:44:53.098Z,99890.71
2019-04-07T11:47:42.761Z,99606.30
2019-04-07T11:50:27.973Z,99475.77
2019-04-07T11:53:05.307Z,99421.45
2019-04-07T11:55:54.631Z,99523.13
2019-04-07T11:58:34.459Z,99804.08
2019-04-07T12:01:30.350Z,100489.50
2019-04-07T12:04:29.516Z,100170.22
2019-04-07T12:07:25.128Z,99678.61
2019-04-07T12:10:21.396Z,99282.87
2019-04-07T12:13:09.075Z,98987.43
2019-04-07T12:15:59.293Z,98861.41
2019-04-07T12:18:55.559Z,99029.50
2019-04-07T12:21:45.050Z,99367.77
2019-04-07T12:24:41.269Z,99428.96
2019-04-07T12:27:30.273Z,99607.00
2019-04-07T12:30:22.511Z,99647.17
2019-04-07T12:33:18.002Z,99416.27
2019-04-07T12:36:44.823Z,99206.41
2019-04-07T12:39:34.963Z,99104.25
2019-04-07T12:42:33.296Z,98952.76
2019-04-07T12:45:22.311Z,98815.07
2019-04-07T12:51:12.221Z,98650.22
2019-04-07T12:53:53.335Z,98692.48
2019-04-07T13:00:24.156Z,98728.31
2019-04-07T13:02:58.528Z,98542.06
2019-04-07T13:05:46.696Z,98285.72
2019-04-07T13:08:36.313Z,98161.70
2019-04-07T13:11:25.438Z,98202.19
2019-04-07T13:14:16.645Z,98245.34
2019-04-07T13:17:09.018Z,98277.09
2019-04-07T13:20:02.303Z,98242.36
2019-04-07T13:25:25.115Z,98272.61
2019-04-07T13:28:15.216Z,98298.35
2019-04-07T13:31:04.954Z,98242.69
2019-04-07T13:33:53.334Z,98238.05
2019-04-07T13:36:34.811Z,98075.91
2019-04-07T13:39:26.300Z,98005.73
2019-04-07T13:42:16.397Z,98028.78
2019-04-07T13:44:58.536Z,97993.97
2019-04-07T13:47:58.455Z,97970.42
2019-04-07T13:50:40.586Z,97894.00
2019-04-07T13:53:36.711Z,97770.59
2019-04-07T13:56:47.993Z,97813.50
2019-04-07T13:59:45.326Z,97982.36
2019-04-07T14:02:30.179Z,98147.59
2019-04-07T14:05:15.257Z,98226.92
2019-04-07T14:08:04.206Z,98222.94
2019-04-07T14:10:59.334Z,98154.23
2019-04-07T14:14:05.729Z,98029.28
2019-04-07T14:17:08.561Z,97864.34
2019-04-07T14:19:57.723Z,97735.50
2019-04-07T14:22:46.585Z,97639.80
2019-04-07T14:25:35.642Z,97622.42
2019-04-07T14:28:19.003Z,97814.17
2019-04-07T14:31:12.858Z,98083.70
2019-04-07T14:34:07.466Z,98087.84
2019-04-07T14:37:03.215Z,98125.00
2019-04-07T14:39:43.420Z,98118.70
2019-04-07T14:42:39.486Z,98032.63
2019-04-07T14:45:29.473Z,97966.78
2019-04-07T14:48:34.776Z,97818.72
2019-04-07T14:51:24.073Z,97704.38
2019-04-07T14:54:22.798Z,98182.62
2019-04-07T14:57:12.803Z,98672.05
2019-04-07T14:59:57.846Z,99148.55
2019-04-07T15:02:29.102Z,99518.36
2019-04-07T15:05:04.201Z,99302.31
2019-04-07T15:07:46.268Z,98958.11
2019-04-07T15:10:24.521Z,98614.30
2019-04-07T15:12:58.102Z,98529.77
2019-04-07T15:15:31.412Z,99002.19
2019-04-07T15:18:01.773Z,98906.76
2019-04-07T15:20:32.316Z,98509.64
2019-04-07T15:23:05.534Z,98128.32
2019-04-07T15:25:40.104Z,97918.72
2019-04-07T15:28:09.006Z,97802.70
2019-04-07T15:30:39.640Z,97693.59
2019-04-07T15:36:09.264Z,97827.58
2019-04-07T15:38:41.716Z,97779.86
2019-04-07T15:41:15.624Z,97755.36
2019-04-07T15:43:45.303Z,97634.33
2019-04-07T15:46:18.056Z,97542.02
2019-04-07T15:48:48.431Z,97472.59
2019-04-07T15:51:20.536Z,97441.00
2019-04-07T15:53:52.058Z,97331.95
2019-04-07T15:56:23.962Z,97187.33
2019-04-07T15:59:04.871Z,97081.42
2019-04-07T16:01:38.009Z,97027.16
2019-04-07T16:04:07.421Z,97034.77
2019-04-07T16:06:38.708Z,97070.38
2019-04-07T16:09:16.692Z,97034.27
2019-04-07T16:11:42.360Z,97045.48
2019-04-07T16:14:14.642Z,97052.23
2019-04-07T16:16:45.127Z,96974.91
2019-04-07T16:19:19.814Z,96946.25
2019-04-07T16:21:48.254Z,96940.31
2019-04-07T16:24:20.893Z,96886.25
2019-04-07T16:26:51.458Z,96896.13
2019-04-07T16:29:23.522Z,96890.20
2019-04-07T16:31:57.003Z,96845.42
2019-04-07T16:34:26.335Z,96825.83
2019-04-07T16:36:59.367Z,96778.54
2019-04-07T16:39:32.404Z,96788.09
2019-04-07T16:42:01.007Z,96757.32
2019-04-07T16:44:31.872Z,96759.46
2019-04-07T16:47:04.007Z,96717.64
2019-04-07T16:49:34.130Z,96700.52
2019-04-07T16:52:05.928Z,96686.52
2019-04-07T16:54:43.458Z,96684.38
2019-04-07T16:57:12.981Z,96651.80
2019-04-07T16:59:43.613Z,96670.87
2019-04-07T17:02:17.610Z,96642.42
2019-04-07T17:04:46.909Z,96660.03
2019-04-07T17:07:21.060Z,96637.50
2019-04-07T17:09:54.944Z,96546.55
2019-04-07T17:12:23.897Z,96526.19
2019-04-07T17:14:54.385Z,96469.14
2019-04-07T17:17:31.426Z,96466.51
2019-04-07T17:20:03.621Z,96431.20
2019-04-07T17:23:02.057Z,96480.17
2019-04-07T17:25:38.056Z,96394.17
2019-04-07T17:28:13.567Z,96403.44
2019-04-07T17:31:05.871Z,96382.27
2019-04-07T17:33:37.923Z,96319.30
2019-04-07T17:36:09.000Z,96402.13
2019-04-07T17:38:45.320Z,96394.08
2019-04-07T17:41:21.439Z,96385.05
2019-04-07T17:44:04.481Z,96377.81
2019-04-07T17:46:49.190Z,96362.20
2019-04-07T17:49:50.451Z,96368.46
2019-04-07T17:52:40.891Z,96329.19
2019-04-07T17:55:30.822Z,96308.34
2019-04-07T17:58:16.022Z,96292.77
2019-04-07T18:01:04.653Z,96284.05
2019-04-07T18:03:57.079Z,96323.47
2019-04-07T18:06:40.361Z,96301.12
2019-04-07T18:09:29.873Z,96273.56
2019-04-07T18:12:19.833Z,96252.20
2019-04-07T18:15:06.402Z,96267.98
2019-04-07T18:17:56.077Z,96260.77
2019-04-07T18:20:47.433Z,96258.63
2019-04-07T18:23:39.825Z,96235.00
2019-04-07T18:26:25.143Z,96239.08
2019-04-07T18:29:13.655Z,96227.10
2019-04-07T18:32:00.130Z,96295.22
2019-04-07T18:34:49.663Z,96259.10
2019-04-07T18:37:42.262Z,96203.33
2019-04-07T18:40:27.303Z,96228.23
2019-04-07T18:43:15.695Z,96241.04
2019-04-07T18:46:07.303Z,96245.48
2019-04-07T18:48:53.359Z,96259.10
2019-04-07T18:51:47.079Z,96213.80
2019-04-07T18:54:36.716Z,96255.16
2019-04-07T18:57:36.042Z,96219.07
2019-04-07T19:00:24.594Z,96233.50
2019-04-07T19:03:02.452Z,96228.23
2019-04-07T19:05:43.676Z,96272.25
2019-04-07T19:08:32.748Z,96290.95
2019-04-07T19:11:14.863Z,96327.87
2019-04-07T19:14:30.675Z,96292.27
2019-04-07T19:16:50.909Z,96288.64
2019-04-07T19:19:39.738Z,96259.45
2019-04-07T19:22:21.252Z,96320.34
2019-04-07T19:25:33.595Z,96319.84
2019-04-07T19:28:38.309Z,96280.61
2019-04-07T19:31:30.691Z,96256.00
2019-04-07T19:34:20.532Z,96250.07
2019-04-07T19:37:10.272Z,96223.66
2019-04-07T19:40:02.482Z,96256.47
2019-04-07T19:42:56.354Z,96258.45
2019-04-07T19:46:04.851Z,96274.20
2019-04-07T19:48:57.445Z,96229.88
2019-04-07T19:51:48.538Z,96272.89
2019-04-07T19:54:29.966Z,96276.84
2019-04-07T19:57:18.158Z,96244.48
2019-04-07T20:00:22.195Z,96231.69
2019-04-07T20:03:09.659Z,96212.67
2019-04-07T20:05:50.883Z,96182.50
2019-04-07T20:08:43.791Z,96210.22
2019-04-07T20:11:37.078Z,96189.89
2019-04-07T20:14:18.336Z,96226.61
2019-04-07T20:17:16.530Z,96191.84
2019-04-07T20:19:55.649Z,96216.27
2019-04-07T20:23:04.409Z,96208.41
2019-04-07T20:25:44.849Z,96191.02
2019-04-07T20:28:21.013Z,96197.42
2019-04-07T20:31:28.463Z,96188.57
2019-04-07T20:34:21.083Z,96184.95
2019-04-07T20:37:07.220Z,96197.42
2019-04-07T20:40:17.456Z,96157.41
2019-04-07T20:42:54.613Z,96134.74
2019-04-07T20:45:53.840Z,96136.05
2019-04-07T20:48:37.277Z,96111.47
2019-04-07T20:51:30.601Z,96124.26
2019-04-07T20:54:17.399Z,96110.83
2019-04-07T20:57:16.366Z,96064.77
2019-04-07T21:00:02.351Z,96082.63
2019-04-07T21:02:43.291Z,96036.72
2019-04-07T21:05:35.781Z,96035.58
2019-04-07T21:08:25.924Z,96026.24
2019-04-07T21:11:08.072Z,95985.13
2019-04-07T21:13:56.471Z,95967.09
2019-04-07T21:17:01.621Z,95918.63
2019-04-07T21:19:50.851Z,95853.14
2019-04-07T21:22:55.934Z,95830.70
2019-04-07T21:25:41.324Z,95828.73
2019-04-07T21:28:24.608Z,95787.83
2019-04-07T21:31:17.286Z,95773.75
2019-04-07T21:33:57.524Z,95762.30
2019-04-07T21:36:40.529Z,95767.88
2019-04-07T21:39:25.893Z,95744.97
2019-04-07T21:42:16.217Z,95718.11
2019-04-07T21:45:07.322Z,95723.03
2019-04-07T21:47:46.822Z,95692.28
2019-04-07T21:50:40.023Z,95714.17
2019-04-07T21:53:29.169Z,95681.64
2019-04-07T21:56:11.411Z,95677.21
2019-04-07T21:58:57.881Z,95684.27
2019-04-07T22:01:37.786Z,95642.25
2019-04-07T22:04:30.214Z,95663.51
2019-04-07T22:07:27.642Z,95628.87
2019-04-07T22:10:00.687Z,95610.21
2019-04-07T22:12:33.010Z,95601.52
2019-04-07T22:15:05.034Z,95615.62
2019-04-07T22:17:37.169Z,95602.02
2019-04-07T22:20:08.463Z,95604.64
2019-04-07T22:22:38.956Z,95620.69
2019-04-07T22:25:11.485Z,95603.97
2019-04-07T22:27:41.900Z,95616.09
2019-04-07T22:30:14.383Z,95598.41
2019-04-07T22:32:44.936Z,95624.94
2019-04-07T22:35:15.463Z,95615.12
2019-04-07T22:37:48.295Z,95621.99
2019-04-07T22:40:21.405Z,95600.71
2019-04-07T22:42:51.827Z,95591.58
2019-04-07T22:45:27.780Z,95614.77
2019-04-07T22:47:55.086Z,95636.06
2019-04-07T22:50:25.539Z,95610.84
2019-04-07T22:52:55.932Z,95582.09
2019-04-07T22:55:27.027Z,95588.64
2019-04-07T22:57:57.859Z,95568.70
2019-04-07T23:00:28.762Z,95560.84
2019-04-07T23:02:59.471Z,95536.03
2019-04-07T23:05:29.984Z,95528.34
2019-04-07T23:08:00.274Z,95510.23
2019-04-07T23:10:31.564Z,95513.16
2019-04-07T23:13:02.044Z,95510.23
2019-04-07T23:15:41.568Z,95496.83
2019-04-07T23:18:05.430Z,95492.89
2019-04-07T23:20:35.912Z,95488.33
2019-04-07T23:23:06.817Z,95507.94
2019-04-07T23:25:37.188Z,95488.33
2019-04-07T23:28:08.210Z,95486.02
2019-04-07T23:30:38.541Z,95443.92
2019-04-07T23:33:08.856Z,95438.37
2019-04-07T23:35:39.341Z,95412.27
2019-04-07T23:38:09.761Z,95405.72
2019-04-07T23:40:40.193Z,95371.09
2019-04-07T23:43:11.155Z,95340.77
2019-04-07T23:45:41.983Z,95348.25
2019-04-07T23:48:12.691Z,95337.15
2019-04-07T23:50:44.414Z,95332.28
2019-04-07T23:53:50.824Z,95285.27
2019-04-07T23:56:21.223Z,95256.39
2019-04-07T23:58:52.041Z,95224.27
